createdAt,value
2019-04-27T00:01:53.844Z,81.78
2019-04-27T00:04:29.897Z,82.16
2019-04-27T00:07:02.962Z,82.88
2019-04-27T00:09:43.217Z,81.77
2019-04-27T00:12:16.447Z,82.30
2019-04-27T00:14:48.360Z,81.23
2019-04-27T00:17:45.831Z,81.45
2019-04-27T00:20:25.594Z,81.41
2019-04-27T00:23:01.403Z,81.17
2019-04-27T00:25:33.827Z,81.85
2019-04-27T00:28:05.520Z,80.58
2019-04-27T00:30:38.215Z,80.77
2019-04-27T00:33:09.259Z,80.69
2019-04-27T00:35:41.579Z,81.00
2019-04-27T00:38:30.126Z,80.48
2019-04-27T00:41:02.981Z,80.11
2019-04-27T00:43:33.774Z,80.56
2019-04-27T00:46:04.610Z,79.91
2019-04-27T00:48:35.732Z,80.28
2019-04-27T00:51:06.758Z,80.69
2019-04-27T00:53:37.693Z,80.51
2019-04-27T00:56:28.188Z,80.25
2019-04-27T00:59:06.190Z,80.78
2019-04-27T01:01:55.166Z,80.27
2019-04-27T01:04:27.721Z,79.75
2019-04-27T01:06:58.403Z,80.24
2019-04-27T01:09:29.765Z,80.27
2019-04-27T01:12:00.799Z,80.13
2019-04-27T01:14:31.903Z,80.25
2019-04-27T01:17:02.875Z,79.75
2019-04-27T01:19:33.819Z,80.14
2019-04-27T01:22:05.105Z,79.21
2019-04-27T01:24:35.797Z,80.07
2019-04-27T01:27:12.717Z,79.60
2019-04-27T01:29:43.796Z,80.29
2019-04-27T01:32:16.491Z,79.58
2019-04-27T01:34:47.268Z,78.83
2019-04-27T01:37:19.701Z,78.78
2019-04-27T01:39:51.298Z,78.58
2019-04-27T01:42:23.283Z,79.11
2019-04-27T01:44:54.398Z,78.54
2019-04-27T01:47:39.549Z,79.28
2019-04-27T01:50:13.050Z,78.83
2019-04-27T01:52:44.048Z,78.79
2019-04-27T01:55:15.476Z,80.04
2019-04-27T01:57:46.472Z,78.71
2019-04-27T02:00:32.139Z,78.99
2019-04-27T02:03:04.475Z,78.64
2019-04-27T02:05:39.193Z,78.01
2019-04-27T02:08:09.866Z,78.56
2019-04-27T02:10:40.615Z,78.49
2019-04-27T02:13:11.636Z,78.22
2019-04-27T02:15:42.654Z,78.89
2019-04-27T02:18:13.340Z,78.12
2019-04-27T02:20:44.534Z,78.13
2019-04-27T02:23:15.644Z,77.67
2019-04-27T02:25:46.322Z,77.94
2019-04-27T02:28:19.497Z,77.62
2019-04-27T02:31:09.847Z,77.95
2019-04-27T02:33:45.012Z,78.32
2019-04-27T02:36:15.990Z,77.69
2019-04-27T02:38:49.210Z,77.35
2019-04-27T02:41:20.264Z,77.38
2019-04-27T02:43:52.888Z,76.87
2019-04-27T02:46:23.571Z,77.58
2019-04-27T02:49:00.186Z,77.66
2019-04-27T02:51:37.497Z,76.93
2019-04-27T02:54:12.012Z,77.31
2019-04-27T02:56:41.605Z,76.71
2019-04-27T02:59:12.324Z,77.22
2019-04-27T03:01:46.764Z,77.19
2019-04-27T03:04:17.321Z,76.97
2019-04-27T03:06:50.096Z,76.82
2019-04-27T03:09:22.068Z,76.74
2019-04-27T03:11:52.907Z,77.50
2019-04-27T03:14:41.791Z,77.62
2019-04-27T03:17:31.113Z,77.10
2019-04-27T03:20:05.648Z,76.98
2019-04-27T03:22:39.785Z,77.14
2019-04-27T03:25:14.865Z,77.44
2019-04-27T03:27:50.087Z,77.31
2019-04-27T03:30:22.454Z,77.58
2019-04-27T03:32:56.663Z,77.30
2019-04-27T03:35:25.813Z,77.39
2019-04-27T03:37:56.577Z,78.21
2019-04-27T03:40:27.337Z,78.25
2019-04-27T03:43:00.103Z,77.53
2019-04-27T03:45:30.975Z,76.59
2019-04-27T03:48:02.151Z,77.21
2019-04-27T03:50:42.992Z,76.13
2019-04-27T03:53:23.765Z,76.73
2019-04-27T03:55:56.105Z,76.51
2019-04-27T03:58:34.380Z,77.21
2019-04-27T04:01:05.215Z,77.26
2019-04-27T04:03:36.216Z,77.25
2019-04-27T04:06:07.186Z,76.50
2019-04-27T04:08:39.710Z,76.60
2019-04-27T04:11:16.018Z,76.78
2019-04-27T04:13:49.573Z,76.41
2019-04-27T04:16:25.741Z,76.84
2019-04-27T04:19:00.472Z,77.56
2019-04-27T04:21:30.542Z,77.33
2019-04-27T04:24:01.529Z,76.38
2019-04-27T04:26:33.116Z,76.29
2019-04-27T04:29:04.304Z,76.83
2019-04-27T04:31:35.324Z,76.52
2019-04-27T04:34:06.047Z,76.63
2019-04-27T04:36:37.102Z,76.73
2019-04-27T04:39:12.047Z,77.32
2019-04-27T04:41:52.657Z,76.70
2019-04-27T04:44:30.266Z,76.69
2019-04-27T04:47:00.653Z,76.38
2019-04-27T04:49:31.387Z,77.36
2019-04-27T04:52:02.079Z,76.97
2019-04-27T04:54:34.039Z,77.65
2019-04-27T04:57:05.852Z,77.36
2019-04-27T04:59:38.905Z,76.65
2019-04-27T05:02:10.572Z,76.85
2019-04-27T05:04:41.561Z,77.22
2019-04-27T05:07:12.254Z,77.06
2019-04-27T05:09:43.256Z,76.60
2019-04-27T05:12:13.926Z,76.87
2019-04-27T05:14:44.623Z,77.24
2019-04-27T05:17:15.683Z,76.98
2019-04-27T05:19:46.704Z,77.21
2019-04-27T05:22:17.404Z,77.35
2019-04-27T05:24:49.706Z,77.15
2019-04-27T05:27:22.403Z,77.15
2019-04-27T05:29:53.065Z,77.91
2019-04-27T05:32:23.781Z,77.92
2019-04-27T05:34:54.448Z,77.56
2019-04-27T05:37:28.384Z,78.44
2019-04-27T05:39:58.885Z,78.41
2019-04-27T05:42:30.085Z,77.07
2019-04-27T05:45:15.326Z,76.93
2019-04-27T05:47:48.477Z,77.52
2019-04-27T05:50:22.008Z,77.25
2019-04-27T05:52:51.134Z,77.52
2019-04-27T05:55:21.836Z,77.18
2019-04-27T05:57:53.827Z,78.01
2019-04-27T06:00:24.698Z,78.25
2019-04-27T06:02:55.694Z,77.99
2019-04-27T06:05:26.654Z,77.98
2019-04-27T06:07:58.916Z,76.51
2019-04-27T06:10:29.832Z,76.86
2019-04-27T06:13:00.513Z,75.78
2019-04-27T06:15:31.173Z,75.65
2019-04-27T06:18:01.866Z,75.91
2019-04-27T06:20:32.526Z,75.49
2019-04-27T06:23:03.232Z,74.98
2019-04-27T06:25:34.271Z,75.35
2019-04-27T06:28:05.038Z,74.48
2019-04-27T06:30:36.041Z,73.73
2019-04-27T06:33:06.718Z,72.72
2019-04-27T06:35:37.449Z,72.50
2019-04-27T06:38:10.194Z,72.21
2019-04-27T06:40:40.772Z,71.85
2019-04-27T06:43:11.768Z,71.43
2019-04-27T06:45:43.531Z,71.89
2019-04-27T06:48:16.334Z,70.98
2019-04-27T06:50:47.010Z,71.54
2019-04-27T06:53:19.163Z,70.98
2019-04-27T06:55:49.934Z,73.02
2019-04-27T06:58:21.070Z,73.60
2019-04-27T07:00:53.417Z,73.25
2019-04-27T07:03:24.489Z,73.65
2019-04-27T07:05:55.170Z,73.75
2019-04-27T07:08:26.160Z,72.41
2019-04-27T07:10:58.724Z,72.36
2019-04-27T07:13:29.289Z,72.19
2019-04-27T07:16:00.578Z,72.32
2019-04-27T07:18:31.557Z,72.51
2019-04-27T07:21:02.330Z,72.28
2019-04-27T07:23:33.040Z,72.46
2019-04-27T07:26:04.060Z,72.37
2019-04-27T07:28:35.085Z,71.18
2019-04-27T07:31:06.045Z,69.73
2019-04-27T07:33:36.791Z,69.11
2019-04-27T07:36:08.982Z,68.41
2019-04-27T07:38:40.534Z,68.52
2019-04-27T07:41:11.644Z,65.87
2019-04-27T07:43:50.258Z,66.68
2019-04-27T07:46:21.197Z,65.96
2019-04-27T07:48:53.085Z,66.83
2019-04-27T07:51:32.034Z,66.19
2019-04-27T07:53:56.671Z,64.97
2019-04-27T07:56:29.153Z,66.52
2019-04-27T07:59:00.191Z,66.31
2019-04-27T08:01:31.216Z,65.89
2019-04-27T08:04:01.889Z,63.92
2019-04-27T08:06:33.388Z,63.49
2019-04-27T08:09:06.297Z,62.13
2019-04-27T08:11:39.146Z,61.43
2019-04-27T08:14:10.536Z,62.85
2019-04-27T08:16:41.233Z,63.25
2019-04-27T08:19:12.293Z,61.32
2019-04-27T08:21:46.249Z,60.53
2019-04-27T08:24:15.373Z,59.84
2019-04-27T08:27:04.114Z,59.02
2019-04-27T08:29:45.550Z,59.87
2019-04-27T08:32:19.599Z,59.52
2019-04-27T08:34:50.384Z,60.25
2019-04-27T08:37:21.335Z,60.48
2019-04-27T08:39:52.036Z,60.68
2019-04-27T08:42:22.739Z,62.07
2019-04-27T08:44:55.308Z,61.45
2019-04-27T08:47:25.995Z,60.46
2019-04-27T08:49:56.928Z,60.17
2019-04-27T08:52:29.009Z,60.97
2019-04-27T08:55:01.035Z,60.39
2019-04-27T08:57:32.119Z,63.18
2019-04-27T09:00:03.171Z,63.19
2019-04-27T09:02:44.565Z,60.64
2019-04-27T09:05:09.400Z,59.80
2019-04-27T09:07:59.994Z,60.94
2019-04-27T09:10:32.297Z,62.18
2019-04-27T09:13:04.670Z,59.94
2019-04-27T09:15:39.062Z,58.82
2019-04-27T09:18:11.756Z,58.74
2019-04-27T09:20:53.265Z,58.04
2019-04-27T09:23:24.236Z,56.81
2019-04-27T09:25:55.203Z,54.30
2019-04-27T09:28:25.912Z,53.71
2019-04-27T09:30:58.251Z,52.32
2019-04-27T09:33:29.709Z,51.56
2019-04-27T09:36:00.668Z,52.58
2019-04-27T09:38:31.612Z,50.07
2019-04-27T09:41:02.588Z,52.59
2019-04-27T09:43:33.479Z,51.97
2019-04-27T09:46:05.820Z,52.96
2019-04-27T09:48:36.915Z,53.85
2019-04-27T09:51:07.880Z,54.47
2019-04-27T09:53:38.564Z,55.39
2019-04-27T09:56:09.672Z,56.14
2019-04-27T09:58:40.728Z,56.91
2019-04-27T10:01:11.641Z,55.81
2019-04-27T10:03:42.572Z,56.19
2019-04-27T10:06:14.198Z,55.66
2019-04-27T10:08:46.861Z,55.49
2019-04-27T10:11:18.066Z,55.57
2019-04-27T10:13:49.027Z,55.98
2019-04-27T10:16:21.521Z,55.10
2019-04-27T10:18:54.875Z,55.14
2019-04-27T10:21:26.420Z,54.51
2019-04-27T10:23:57.428Z,54.08
2019-04-27T10:26:32.884Z,51.12
2019-04-27T10:29:03.289Z,50.60
2019-04-27T10:31:34.326Z,50.13
2019-04-27T10:34:05.973Z,50.29
2019-04-27T10:36:39.635Z,49.88
2019-04-27T10:39:14.049Z,51.01
2019-04-27T10:41:46.333Z,53.06
2019-04-27T10:44:17.210Z,51.25
2019-04-27T10:46:48.148Z,51.41
2019-04-27T10:49:19.116Z,50.85
2019-04-27T10:51:49.792Z,50.86
2019-04-27T10:54:20.480Z,50.21
2019-04-27T10:56:51.421Z,48.96
2019-04-27T10:59:22.262Z,48.57
2019-04-27T11:01:52.952Z,48.98
2019-04-27T11:04:41.656Z,48.83
2019-04-27T11:07:15.764Z,48.97
2019-04-27T11:09:46.866Z,47.96
2019-04-27T11:12:18.801Z,48.07
2019-04-27T11:14:50.099Z,47.86
2019-04-27T11:17:20.937Z,46.88
2019-04-27T11:19:51.680Z,45.96
2019-04-27T11:22:22.378Z,46.04
2019-04-27T11:24:56.326Z,46.34
2019-04-27T11:27:25.827Z,50.11
2019-04-27T11:29:57.254Z,53.22
2019-04-27T11:32:28.200Z,54.78
2019-04-27T11:35:00.806Z,55.14
2019-04-27T11:37:33.131Z,54.73
2019-04-27T11:40:05.577Z,55.83
2019-04-27T11:42:36.242Z,56.68
2019-04-27T11:45:13.214Z,56.79
2019-04-27T11:47:44.498Z,56.33
2019-04-27T11:50:16.593Z,55.06
2019-04-27T11:52:47.669Z,54.86
2019-04-27T11:55:19.663Z,53.49
2019-04-27T11:57:50.983Z,51.99
2019-04-27T12:00:27.651Z,50.91
2019-04-27T12:03:02.458Z,46.88
2019-04-27T12:05:33.792Z,44.86
2019-04-27T12:08:06.289Z,45.06
2019-04-27T12:10:38.155Z,41.84
2019-04-27T12:13:15.942Z,41.60
2019-04-27T12:15:46.902Z,42.24
2019-04-27T12:18:20.268Z,38.83
2019-04-27T12:20:51.068Z,38.17
2019-04-27T12:23:32.978Z,38.44
2019-04-27T12:25:56.532Z,38.75
2019-04-27T12:28:33.187Z,38.44
2019-04-27T12:31:08.758Z,38.43
2019-04-27T12:33:39.256Z,39.61
2019-04-27T12:36:15.949Z,37.84
2019-04-27T12:38:48.965Z,39.55
2019-04-27T12:41:20.255Z,39.56
2019-04-27T12:43:51.519Z,40.07
2019-04-27T12:46:23.912Z,39.72
2019-04-27T12:48:57.095Z,39.38
2019-04-27T12:51:27.567Z,37.82
2019-04-27T12:53:59.893Z,37.02
2019-04-27T12:56:48.275Z,37.83
2019-04-27T12:59:36.729Z,38.58
2019-04-27T13:02:07.792Z,40.47
2019-04-27T13:04:38.586Z,40.15
2019-04-27T13:07:09.531Z,41.10
2019-04-27T13:09:40.830Z,40.42
2019-04-27T13:12:11.947Z,39.57
2019-04-27T13:14:42.946Z,39.49
2019-04-27T13:17:13.768Z,38.38
2019-04-27T13:19:45.652Z,38.13
2019-04-27T13:22:16.673Z,40.40
2019-04-27T13:24:47.334Z,41.45
2019-04-27T13:27:18.299Z,41.85
2019-04-27T13:29:49.001Z,41.96
2019-04-27T13:32:19.948Z,41.89
2019-04-27T13:34:50.912Z,42.25
2019-04-27T13:37:36.801Z,41.87
2019-04-27T13:40:09.957Z,41.21
2019-04-27T13:42:42.707Z,41.19
2019-04-27T13:45:18.532Z,41.30
2019-04-27T13:47:51.133Z,41.34
2019-04-27T13:50:39.455Z,40.05
2019-04-27T13:53:11.359Z,40.93
2019-04-27T13:55:42.393Z,40.16
2019-04-27T13:58:13.630Z,41.11
2019-04-27T14:00:44.373Z,41.25
2019-04-27T14:03:16.798Z,41.14
2019-04-27T14:05:47.767Z,42.05
2019-04-27T14:08:20.456Z,43.73
2019-04-27T14:10:51.507Z,44.53
2019-04-27T14:13:22.141Z,44.27
2019-04-27T14:15:53.099Z,44.64
2019-04-27T14:18:23.791Z,45.58
2019-04-27T14:20:54.763Z,46.83
2019-04-27T14:23:28.357Z,48.14
2019-04-27T14:26:00.421Z,48.17
2019-04-27T14:28:31.421Z,48.08
2019-04-27T14:31:02.395Z,48.39
2019-04-27T14:33:33.154Z,47.79
2019-04-27T14:36:04.451Z,47.73
2019-04-27T14:38:35.695Z,47.11
2019-04-27T14:41:08.930Z,47.37
2019-04-27T14:43:39.642Z,46.57
2019-04-27T14:46:10.659Z,46.28
2019-04-27T14:48:42.342Z,46.48
2019-04-27T14:51:13.295Z,47.14
2019-04-27T14:53:43.963Z,46.93
2019-04-27T14:56:14.928Z,47.62
2019-04-27T14:58:45.626Z,47.65
2019-04-27T15:01:16.541Z,46.90
2019-04-27T15:03:47.760Z,47.91
2019-04-27T15:06:19.829Z,48.81
2019-04-27T15:08:50.618Z,47.48
2019-04-27T15:11:21.396Z,47.46
2019-04-27T15:13:53.302Z,48.25
2019-04-27T15:16:25.873Z,47.26
2019-04-27T15:19:13.182Z,47.14
2019-04-27T15:21:55.839Z,47.70
2019-04-27T15:24:14.282Z,47.29
2019-04-27T15:26:44.966Z,47.87
2019-04-27T15:29:20.441Z,48.49
2019-04-27T15:32:06.350Z,47.61
2019-04-27T15:34:41.878Z,48.68
2019-04-27T15:37:18.239Z,50.24
2019-04-27T15:40:12.572Z,50.55
2019-04-27T15:42:52.913Z,51.06
2019-04-27T15:45:24.439Z,51.25
2019-04-27T15:47:56.186Z,51.02
2019-04-27T15:50:32.231Z,51.30
2019-04-27T15:53:02.880Z,50.73
2019-04-27T15:55:37.415Z,50.34
2019-04-27T15:58:07.972Z,50.65
2019-04-27T16:00:39.727Z,48.88
2019-04-27T16:03:10.790Z,49.20
2019-04-27T16:05:41.708Z,48.76
2019-04-27T16:08:15.510Z,46.76
2019-04-27T16:10:45.482Z,46.66
2019-04-27T16:13:18.028Z,47.37
2019-04-27T16:15:54.002Z,46.99
2019-04-27T16:18:24.454Z,46.95
2019-04-27T16:20:54.446Z,47.24
2019-04-27T16:23:25.461Z,47.65
2019-04-27T16:25:58.210Z,47.89
2019-04-27T16:28:30.250Z,47.58
2019-04-27T16:31:00.961Z,47.13
2019-04-27T16:33:31.681Z,47.30
2019-04-27T16:36:07.060Z,47.33
2019-04-27T16:38:38.690Z,47.47
2019-04-27T16:41:10.146Z,45.95
2019-04-27T16:43:40.780Z,46.02
2019-04-27T16:46:11.573Z,45.91
2019-04-27T16:48:42.231Z,46.01
2019-04-27T16:51:12.920Z,45.24
2019-04-27T16:53:43.916Z,45.69
2019-04-27T16:56:16.357Z,46.39
2019-04-27T16:58:51.007Z,46.68
2019-04-27T17:01:24.097Z,47.54
2019-04-27T17:03:56.027Z,47.01
2019-04-27T17:06:29.347Z,47.04
2019-04-27T17:09:05.630Z,46.89
2019-04-27T17:11:33.566Z,47.32
2019-04-27T17:14:22.440Z,47.66
2019-04-27T17:16:53.236Z,47.99
2019-04-27T17:19:25.584Z,48.53
2019-04-27T17:21:56.914Z,49.45
2019-04-27T17:24:41.927Z,49.97
2019-04-27T17:27:11.084Z,49.74
2019-04-27T17:29:41.330Z,49.74
2019-04-27T17:32:13.718Z,49.81
2019-04-27T17:34:44.638Z,49.62
2019-04-27T17:37:15.697Z,50.12
2019-04-27T17:39:46.467Z,50.62
2019-04-27T17:42:18.715Z,50.60
2019-04-27T17:44:53.069Z,51.97
2019-04-27T17:47:26.465Z,52.60
2019-04-27T17:49:54.658Z,52.54
2019-04-27T17:52:25.572Z,53.29
2019-04-27T17:54:56.226Z,53.44
2019-04-27T17:57:30.253Z,53.94
2019-04-27T18:00:03.071Z,53.96
2019-04-27T18:02:33.942Z,54.43
2019-04-27T18:05:09.519Z,54.12
2019-04-27T18:07:43.918Z,54.11
2019-04-27T18:10:13.387Z,54.60
2019-04-27T18:12:48.657Z,54.11
2019-04-27T18:15:17.779Z,54.35
2019-04-27T18:17:52.217Z,54.37
2019-04-27T18:20:24.416Z,53.36
2019-04-27T18:23:02.499Z,52.23
2019-04-27T18:25:35.680Z,52.21
2019-04-27T18:28:14.861Z,53.41
2019-04-27T18:30:58.311Z,54.04
2019-04-27T18:33:32.608Z,54.95
2019-04-27T18:36:05.595Z,56.49
2019-04-27T18:38:35.492Z,57.54
2019-04-27T18:41:11.303Z,58.94
2019-04-27T18:43:46.488Z,60.57
2019-04-27T18:46:14.873Z,60.66
2019-04-27T18:48:49.388Z,61.95
2019-04-27T18:51:28.826Z,62.34
2019-04-27T18:54:03.549Z,63.30
2019-04-27T18:56:38.438Z,63.56
2019-04-27T18:59:08.318Z,64.20
2019-04-27T19:01:38.970Z,64.91
2019-04-27T19:04:10.237Z,65.90
2019-04-27T19:06:41.142Z,65.92
2019-04-27T19:09:12.181Z,66.19
2019-04-27T19:11:54.168Z,66.62
2019-04-27T19:14:15.616Z,66.80
2019-04-27T19:16:48.330Z,67.34
2019-04-27T19:19:19.347Z,67.14
2019-04-27T19:21:50.276Z,67.58
2019-04-27T19:24:20.963Z,67.75
2019-04-27T19:27:17.681Z,67.68
2019-04-27T19:29:43.772Z,67.60
2019-04-27T19:32:14.885Z,66.86
2019-04-27T19:34:45.565Z,67.28
2019-04-27T19:37:16.245Z,66.98
2019-04-27T19:39:48.172Z,67.04
2019-04-27T19:42:20.353Z,67.11
2019-04-27T19:44:51.578Z,67.49
2019-04-27T19:47:23.322Z,67.85
2019-04-27T19:49:54.012Z,68.01
2019-04-27T19:52:24.952Z,68.73
2019-04-27T19:54:55.882Z,69.59
2019-04-27T19:57:36.095Z,69.87
2019-04-27T20:00:01.092Z,70.47
2019-04-27T20:02:33.240Z,70.48
2019-04-27T20:05:05.793Z,70.65
2019-04-27T20:07:38.072Z,71.03
2019-04-27T20:10:09.546Z,71.42
2019-04-27T20:12:41.439Z,71.35
2019-04-27T20:15:12.624Z,71.47
2019-04-27T20:17:43.322Z,71.73
2019-04-27T20:20:14.513Z,72.25
2019-04-27T20:22:45.300Z,72.18
2019-04-27T20:25:16.460Z,72.12
2019-04-27T20:27:49.599Z,72.26
2019-04-27T20:30:21.082Z,72.02
2019-04-27T20:32:52.223Z,71.53
2019-04-27T20:35:22.868Z,71.33
2019-04-27T20:37:53.528Z,71.37
2019-04-27T20:40:24.456Z,71.12
2019-04-27T20:42:55.374Z,70.70
2019-04-27T20:45:26.083Z,70.75
2019-04-27T20:47:56.749Z,70.68
2019-04-27T20:50:27.716Z,70.47
2019-04-27T20:52:58.442Z,70.63
2019-04-27T20:55:29.691Z,70.68
2019-04-27T20:58:02.698Z,70.24
2019-04-27T21:00:34.616Z,70.39
2019-04-27T21:03:12.946Z,70.72
2019-04-27T21:06:01.114Z,71.14
2019-04-27T21:08:33.712Z,70.74
2019-04-27T21:11:04.710Z,71.17
2019-04-27T21:13:35.441Z,71.38
2019-04-27T21:16:06.229Z,71.30
2019-04-27T21:18:37.157Z,71.79
2019-04-27T21:21:08.187Z,71.75
2019-04-27T21:23:38.914Z,71.58
2019-04-27T21:26:09.699Z,72.30
2019-04-27T21:28:42.955Z,73.04
2019-04-27T21:31:13.074Z,73.29
2019-04-27T21:33:44.022Z,73.02
2019-04-27T21:36:14.695Z,73.24
2019-04-27T21:38:45.751Z,73.20
2019-04-27T21:41:16.721Z,73.10
2019-04-27T21:43:47.802Z,72.83
2019-04-27T21:46:18.553Z,72.96
2019-04-27T21:48:50.475Z,72.48
2019-04-27T21:51:21.867Z,72.46
2019-04-27T21:54:03.295Z,72.24
2019-04-27T21:56:33.989Z,71.98
2019-04-27T21:59:05.000Z,71.02
2019-04-27T22:01:35.796Z,70.74
2019-04-27T22:04:08.586Z,70.75
2019-04-27T22:06:40.901Z,69.86
2019-04-27T22:09:14.396Z,68.55
2019-04-27T22:11:45.612Z,67.73
2019-04-27T22:14:16.297Z,67.96
2019-04-27T22:16:47.374Z,67.81
2019-04-27T22:19:18.416Z,67.32
2019-04-27T22:21:49.444Z,67.76
2019-04-27T22:24:22.025Z,67.46
2019-04-27T22:26:52.696Z,67.50
2019-04-27T22:29:23.631Z,66.78
2019-04-27T22:31:54.623Z,67.24
2019-04-27T22:34:25.342Z,67.00
2019-04-27T22:36:56.983Z,65.93
2019-04-27T22:39:31.005Z,65.59
2019-04-27T22:42:03.604Z,66.48
2019-04-27T22:44:38.938Z,66.78
2019-04-27T22:47:11.428Z,67.40
2019-04-27T22:49:41.975Z,67.47
2019-04-27T22:52:12.998Z,67.67
2019-04-27T22:54:45.046Z,67.45
2019-04-27T22:57:17.387Z,68.17
2019-04-27T22:59:51.143Z,67.88
2019-04-27T23:02:35.235Z,68.75
2019-04-27T23:05:08.106Z,69.36
2019-04-27T23:07:38.771Z,70.32
2019-04-27T23:10:11.243Z,70.75
2019-04-27T23:12:42.066Z,70.76
2019-04-27T23:15:14.922Z,71.26
2019-04-27T23:17:47.500Z,71.87
2019-04-27T23:20:18.169Z,73.04
2019-04-27T23:22:49.095Z,73.14
2019-04-27T23:25:19.754Z,73.87
2019-04-27T23:27:51.431Z,74.47
2019-04-27T23:30:25.208Z,75.31
2019-04-27T23:32:56.121Z,76.18
2019-04-27T23:35:27.084Z,77.76
2019-04-27T23:37:58.450Z,77.43
2019-04-27T23:40:29.117Z,78.32
2019-04-27T23:43:01.565Z,79.59
2019-04-27T23:45:32.363Z,79.92
2019-04-27T23:48:03.303Z,79.90
2019-04-27T23:50:35.848Z,79.67
2019-04-27T23:53:08.166Z,79.91
2019-04-27T23:55:41.991Z,80.03
2019-04-27T23:58:12.824Z,79.99
